X  Fechar Dados meteorológicos de METAR da aviação     LGRX Patras Araxos Agamemnon Airport
Temperatura
28°C Temperatura
23°C Ponto de orvalho
74% Umidade



Vento
2 M/S
5 MPH
8 KM/H
4 NÓS



180°
S
Condições atuais

Limpo Limpo
Pressão 1008.81 (hPa) - 29.79 (inHg)
Visibilidade 6 (milha) - 9.7 (km)
Aeroporto
Código do aeroporto LGRX

Localização: Patras Araxos Agamemnon Airport
Distância: 108 (km)

Metar:
LGRX 141850Z 18004KT CAVOK 28/23 Q1009

Hora: 14-07-2024 21:50 EEST